sensor_id;sensor_type;location;lat;lon;timestamp;P1;durP1;ratioP1;P2;durP2;ratioP2
595;SDS011;19946;49.306;11.350;2023-02-01T00:02:17;6.20;;;6.10;;
595;SDS011;19946;49.306;11.350;2023-02-01T00:05:17;7.07;;;6.97;;
595;SDS011;19946;49.306;11.350;2023-02-01T00:08:17;9.67;;;9.53;;
595;SDS011;19946;49.306;11.350;2023-02-01T00:11:18;8.80;;;8.70;;
595;SDS011;19946;49.306;11.350;2023-02-01T00:14:18;6.87;;;6.77;;
595;SDS011;19946;49.306;11.350;2023-02-01T00:17:19;5.70;;;5.70;;
595;SDS011;19946;49.306;11.350;2023-02-01T00:20:19;5.07;;;5.07;;
595;SDS011;19946;49.306;11.350;2023-02-01T00:23:19;5.13;;;5.13;;
595;SDS011;19946;49.306;11.350;2023-02-01T00:26:23;6.80;;;6.70;;
595;SDS011;19946;49.306;11.350;2023-02-01T00:29:30;4.47;;;4.47;;
595;SDS011;19946;49.306;11.350;2023-02-01T00:32:30;5.13;;;5.13;;
595;SDS011;19946;49.306;11.350;2023-02-01T00:35:33;4.60;;;4.60;;
595;SDS011;19946;49.306;11.350;2023-02-01T00:38:35;5.60;;;5.60;;
595;SDS011;19946;49.306;11.350;2023-02-01T00:41:37;5.33;;;5.33;;
595;SDS011;19946;49.306;11.350;2023-02-01T00:44:38;4.40;;;4.40;;
595;SDS011;19946;49.306;11.350;2023-02-01T00:47:38;6.20;;;6.10;;
595;SDS011;19946;49.306;11.350;2023-02-01T00:50:42;6.27;;;6.17;;
595;SDS011;19946;49.306;11.350;2023-02-01T00:53:42;6.20;;;6.10;;
595;SDS011;19946;49.306;11.350;2023-02-01T00:56:43;4.30;;;4.30;;
595;SDS011;19946;49.306;11.350;2023-02-01T00:59:43;4.10;;;4.10;;
595;SDS011;19946;49.306;11.350;2023-02-01T01:02:44;7.60;;;7.50;;
595;SDS011;19946;49.306;11.350;2023-02-01T01:05:47;9.20;;;9.10;;
595;SDS011;19946;49.306;11.350;2023-02-01T01:08:50;7.07;;;6.97;;
595;SDS011;19946;49.306;11.350;2023-02-01T01:11:51;6.50;;;6.40;;
595;SDS011;19946;49.306;11.350;2023-02-01T01:14:52;6.10;;;6.00;;
595;SDS011;19946;49.306;11.350;2023-02-01T01:17:53;7.00;;;6.90;;
595;SDS011;19946;49.306;11.350;2023-02-01T01:20:53;7.07;;;6.97;;
595;SDS011;19946;49.306;11.350;2023-02-01T01:23:54;9.83;;;9.63;;
595;SDS011;19946;49.306;11.350;2023-02-01T01:26:55;9.03;;;8.93;;
595;SDS011;19946;49.306;11.350;2023-02-01T01:29:55;8.53;;;8.43;;
595;SDS011;19946;49.306;11.350;2023-02-01T01:32:56;8.70;;;8.60;;
595;SDS011;19946;49.306;11.350;2023-02-01T01:35:57;8.80;;;8.70;;
595;SDS011;19946;49.306;11.350;2023-02-01T01:38:57;10.80;;;10.60;;
595;SDS011;19946;49.306;11.350;2023-02-01T01:41:58;10.90;;;10.70;;
595;SDS011;19946;49.306;11.350;2023-02-01T01:45:01;9.37;;;9.27;;
595;SDS011;19946;49.306;11.350;2023-02-01T01:48:16;8.50;;;8.40;;
595;SDS011;19946;49.306;11.350;2023-02-01T01:51:19;7.97;;;7.87;;
595;SDS011;19946;49.306;11.350;2023-02-01T01:54:31;8.93;;;8.83;;
595;SDS011;19946;49.306;11.350;2023-02-01T01:57:37;7.50;;;7.40;;
595;SDS011;19946;49.306;11.350;2023-02-01T02:00:41;8.00;;;7.90;;
595;SDS011;19946;49.306;11.350;2023-02-01T02:03:44;7.50;;;7.40;;
595;SDS011;19946;49.306;11.350;2023-02-01T02:06:50;6.23;;;6.13;;
595;SDS011;19946;49.306;11.350;2023-02-01T02:09:55;3.70;;;3.70;;
595;SDS011;19946;49.306;11.350;2023-02-01T02:12:56;3.80;;;3.80;;
595;SDS011;19946;49.306;11.350;2023-02-01T02:16:02;5.23;;;5.23;;
595;SDS011;19946;49.306;11.350;2023-02-01T02:23:20;7.70;;;7.60;;
595;SDS011;19946;49.306;11.350;2023-02-01T02:43:56;9.90;;;9.70;;
595;SDS011;19946;49.306;11.350;2023-02-01T02:47:23;12.03;;;11.83;;
595;SDS011;19946;49.306;11.350;2023-02-01T02:50:29;15.93;;;15.57;;
595;SDS011;19946;49.306;11.350;2023-02-01T02:54:05;16.27;;;15.90;;
595;SDS011;19946;49.306;11.350;2023-02-01T02:57:39;16.00;;;15.70;;
595;SDS011;19946;49.306;11.350;2023-02-01T03:01:02;19.70;;;19.20;;
595;SDS011;19946;49.306;11.350;2023-02-01T03:04:23;20.37;;;19.87;;
595;SDS011;19946;49.306;11.350;2023-02-01T03:11:04;18.03;;;17.63;;
595;SDS011;19946;49.306;11.350;2023-02-01T03:14:06;19.60;;;19.10;;
595;SDS011;19946;49.306;11.350;2023-02-01T03:17:11;12.53;;;12.33;;
595;SDS011;19946;49.306;11.350;2023-02-01T03:20:15;15.43;;;15.13;;
595;SDS011;19946;49.306;11.350;2023-02-01T03:23:20;10.80;;;10.60;;
595;SDS011;19946;49.306;11.350;2023-02-01T03:26:25;8.23;;;8.13;;
595;SDS011;19946;49.306;11.350;2023-02-01T03:29:37;10.57;;;10.37;;
595;SDS011;19946;49.306;11.350;2023-02-01T03:32:41;4.47;;;4.47;;
595;SDS011;19946;49.306;11.350;2023-02-01T03:36:17;5.67;;;5.67;;
595;SDS011;19946;49.306;11.350;2023-02-01T03:39:43;6.47;;;6.37;;
595;SDS011;19946;49.306;11.350;2023-02-01T03:42:49;8.00;;;7.90;;
595;SDS011;19946;49.306;11.350;2023-02-01T03:45:57;9.63;;;9.50;;
595;SDS011;19946;49.306;11.350;2023-02-01T03:49:05;11.20;;;11.00;;
595;SDS011;19946;49.306;11.350;2023-02-01T03:52:13;11.37;;;11.17;;
595;SDS011;19946;49.306;11.350;2023-02-01T03:55:28;9.50;;;9.40;;
595;SDS011;19946;49.306;11.350;2023-02-01T03:58:30;9.00;;;8.90;;
595;SDS011;19946;49.306;11.350;2023-02-01T04:01:31;10.17;;;9.97;;
595;SDS011;19946;49.306;11.350;2023-02-01T04:04:31;4.17;;;4.17;;
595;SDS011;19946;49.306;11.350;2023-02-01T04:07:33;5.70;;;5.67;;
595;SDS011;19946;49.306;11.350;2023-02-01T04:10:36;6.40;;;6.30;;
595;SDS011;19946;49.306;11.350;2023-02-01T04:13:37;6.50;;;6.40;;
595;SDS011;19946;49.306;11.350;2023-02-01T04:16:37;4.80;;;4.80;;
595;SDS011;19946;49.306;11.350;2023-02-01T04:19:38;3.70;;;3.70;;
595;SDS011;19946;49.306;11.350;2023-02-01T04:22:38;5.63;;;5.63;;
595;SDS011;19946;49.306;11.350;2023-02-01T04:25:38;9.00;;;8.90;;
595;SDS011;19946;49.306;11.350;2023-02-01T04:28:39;7.10;;;7.00;;
595;SDS011;19946;49.306;11.350;2023-02-01T04:31:39;8.10;;;8.00;;
595;SDS011;19946;49.306;11.350;2023-02-01T04:34:40;9.23;;;9.13;;
595;SDS011;19946;49.306;11.350;2023-02-01T04:37:40;8.27;;;8.17;;
595;SDS011;19946;49.306;11.350;2023-02-01T04:40:41;8.40;;;8.30;;
595;SDS011;19946;49.306;11.350;2023-02-01T04:43:41;11.23;;;11.03;;
595;SDS011;19946;49.306;11.350;2023-02-01T04:46:41;8.47;;;8.37;;
595;SDS011;19946;49.306;11.350;2023-02-01T04:49:42;8.20;;;8.10;;
595;SDS011;19946;49.306;11.350;2023-02-01T04:52:42;12.13;;;11.93;;
595;SDS011;19946;49.306;11.350;2023-02-01T04:55:47;11.53;;;11.33;;
595;SDS011;19946;49.306;11.350;2023-02-01T04:58:48;13.70;;;13.40;;
595;SDS011;19946;49.306;11.350;2023-02-01T05:01:48;10.90;;;10.70;;
595;SDS011;19946;49.306;11.350;2023-02-01T05:04:49;13.80;;;13.50;;
595;SDS011;19946;49.306;11.350;2023-02-01T05:07:50;9.50;;;9.40;;
595;SDS011;19946;49.306;11.350;2023-02-01T05:10:50;4.40;;;4.40;;
595;SDS011;19946;49.306;11.350;2023-02-01T05:13:51;4.90;;;4.90;;
595;SDS011;19946;49.306;11.350;2023-02-01T05:16:51;8.80;;;8.70;;
595;SDS011;19946;49.306;11.350;2023-02-01T05:19:51;9.80;;;9.63;;
595;SDS011;19946;49.306;11.350;2023-02-01T05:22:52;8.63;;;8.53;;
595;SDS011;19946;49.306;11.350;2023-02-01T05:25:57;10.10;;;9.90;;
595;SDS011;19946;49.306;11.350;2023-02-01T05:29:00;7.70;;;7.60;;
595;SDS011;19946;49.306;11.350;2023-02-01T05:32:01;7.60;;;7.50;;
595;SDS011;19946;49.306;11.350;2023-02-01T05:35:01;8.30;;;8.20;;
595;SDS011;19946;49.306;11.350;2023-02-01T05:38:02;7.00;;;6.90;;
595;SDS011;19946;49.306;11.350;2023-02-01T05:41:02;6.93;;;6.83;;
595;SDS011;19946;49.306;11.350;2023-02-01T05:44:02;7.77;;;7.67;;
595;SDS011;19946;49.306;11.350;2023-02-01T05:47:03;8.80;;;8.70;;
595;SDS011;19946;49.306;11.350;2023-02-01T05:50:04;9.63;;;9.47;;
595;SDS011;19946;49.306;11.350;2023-02-01T05:53:05;11.03;;;10.83;;
595;SDS011;19946;49.306;11.350;2023-02-01T05:56:05;10.23;;;10.03;;
595;SDS011;19946;49.306;11.350;2023-02-01T05:59:06;12.27;;;12.07;;
595;SDS011;19946;49.306;11.350;2023-02-01T06:02:07;11.70;;;11.50;;
595;SDS011;19946;49.306;11.350;2023-02-01T06:05:10;13.40;;;12.90;;
595;SDS011;19946;49.306;11.350;2023-02-01T06:08:10;12.13;;;11.93;;
595;SDS011;19946;49.306;11.350;2023-02-01T06:11:11;9.43;;;9.33;;
595;SDS011;19946;49.306;11.350;2023-02-01T06:14:11;7.67;;;7.57;;
595;SDS011;19946;49.306;11.350;2023-02-01T06:17:11;6.30;;;6.20;;
595;SDS011;19946;49.306;11.350;2023-02-01T06:20:12;6.70;;;6.60;;
595;SDS011;19946;49.306;11.350;2023-02-01T06:23:14;5.80;;;5.80;;
595;SDS011;19946;49.306;11.350;2023-02-01T06:26:15;7.47;;;7.37;;
595;SDS011;19946;49.306;11.350;2023-02-01T06:29:17;7.47;;;7.37;;
595;SDS011;19946;49.306;11.350;2023-02-01T06:32:17;6.43;;;6.33;;
595;SDS011;19946;49.306;11.350;2023-02-01T06:35:18;6.10;;;6.00;;
595;SDS011;19946;49.306;11.350;2023-02-01T06:38:18;6.93;;;6.83;;
595;SDS011;19946;49.306;11.350;2023-02-01T06:41:19;7.33;;;7.23;;
595;SDS011;19946;49.306;11.350;2023-02-01T06:44:20;7.97;;;7.87;;
595;SDS011;19946;49.306;11.350;2023-02-01T06:47:20;8.37;;;8.27;;
595;SDS011;19946;49.306;11.350;2023-02-01T06:50:21;8.77;;;8.67;;
595;SDS011;19946;49.306;11.350;2023-02-01T06:53:21;8.80;;;8.70;;
595;SDS011;19946;49.306;11.350;2023-02-01T06:56:22;9.20;;;9.10;;
595;SDS011;19946;49.306;11.350;2023-02-01T06:59:22;9.00;;;8.90;;
595;SDS011;19946;49.306;11.350;2023-02-01T07:02:23;9.30;;;9.20;;
595;SDS011;19946;49.306;11.350;2023-02-01T07:05:23;10.67;;;10.47;;
595;SDS011;19946;49.306;11.350;2023-02-01T07:08:24;10.30;;;10.10;;
595;SDS011;19946;49.306;11.350;2023-02-01T07:11:26;9.60;;;9.50;;
595;SDS011;19946;49.306;11.350;2023-02-01T07:14:28;8.10;;;8.00;;
595;SDS011;19946;49.306;11.350;2023-02-01T07:17:28;8.30;;;8.20;;
595;SDS011;19946;49.306;11.350;2023-02-01T07:20:29;7.93;;;7.83;;
595;SDS011;19946;49.306;11.350;2023-02-01T07:23:29;8.13;;;8.03;;
595;SDS011;19946;49.306;11.350;2023-02-01T07:26:30;8.67;;;8.57;;
595;SDS011;19946;49.306;11.350;2023-02-01T07:29:31;9.03;;;8.93;;
595;SDS011;19946;49.306;11.350;2023-02-01T07:32:31;7.73;;;7.63;;
595;SDS011;19946;49.306;11.350;2023-02-01T07:35:32;7.90;;;7.80;;
595;SDS011;19946;49.306;11.350;2023-02-01T07:38:32;7.10;;;7.00;;
595;SDS011;19946;49.306;11.350;2023-02-01T07:41:33;8.37;;;8.27;;
595;SDS011;19946;49.306;11.350;2023-02-01T07:44:34;5.00;;;5.00;;
595;SDS011;19946;49.306;11.350;2023-02-01T07:47:34;7.80;;;7.70;;
595;SDS011;19946;49.306;11.350;2023-02-01T07:50:34;9.60;;;9.50;;
595;SDS011;19946;49.306;11.350;2023-02-01T07:53:35;10.33;;;10.13;;
595;SDS011;19946;49.306;11.350;2023-02-01T07:56:36;11.30;;;11.10;;
595;SDS011;19946;49.306;11.350;2023-02-01T07:59:36;11.83;;;11.63;;
595;SDS011;19946;49.306;11.350;2023-02-01T08:03:00;9.97;;;9.77;;
595;SDS011;19946;49.306;11.350;2023-02-01T08:06:01;9.23;;;9.13;;
595;SDS011;19946;49.306;11.350;2023-02-01T08:09:02;9.20;;;9.10;;
595;SDS011;19946;49.306;11.350;2023-02-01T08:12:03;10.27;;;10.07;;
595;SDS011;19946;49.306;11.350;2023-02-01T08:15:04;9.30;;;9.20;;
595;SDS011;19946;49.306;11.350;2023-02-01T08:18:05;11.67;;;11.47;;
595;SDS011;19946;49.306;11.350;2023-02-01T08:21:10;13.10;;;12.80;;
595;SDS011;19946;49.306;11.350;2023-02-01T08:24:12;13.50;;;13.20;;
595;SDS011;19946;49.306;11.350;2023-02-01T08:27:13;10.30;;;10.10;;
595;SDS011;19946;49.306;11.350;2023-02-01T08:30:13;13.33;;;13.03;;
595;SDS011;19946;49.306;11.350;2023-02-01T08:33:14;13.20;;;12.90;;
595;SDS011;19946;49.306;11.350;2023-02-01T08:36:14;16.13;;;15.80;;
595;SDS011;19946;49.306;11.350;2023-02-01T08:39:14;15.50;;;15.20;;
595;SDS011;19946;49.306;11.350;2023-02-01T08:42:15;15.83;;;15.53;;
595;SDS011;19946;49.306;11.350;2023-02-01T08:45:34;20.20;;;19.70;;
595;SDS011;19946;49.306;11.350;2023-02-01T08:48:35;13.60;;;13.30;;
595;SDS011;19946;49.306;11.350;2023-02-01T08:51:36;9.70;;;9.53;;
595;SDS011;19946;49.306;11.350;2023-02-01T08:54:36;12.20;;;12.00;;
595;SDS011;19946;49.306;11.350;2023-02-01T08:57:37;15.60;;;15.30;;
595;SDS011;19946;49.306;11.350;2023-02-01T09:00:38;20.00;;;19.50;;
595;SDS011;19946;49.306;11.350;2023-02-01T09:03:39;18.73;;;18.33;;
595;SDS011;19946;49.306;11.350;2023-02-01T09:06:40;17.53;;;17.13;;
595;SDS011;19946;49.306;11.350;2023-02-01T09:09:41;18.80;;;18.40;;
595;SDS011;19946;49.306;11.350;2023-02-01T09:12:42;14.17;;;13.87;;
595;SDS011;19946;49.306;11.350;2023-02-01T09:15:42;15.00;;;14.70;;
595;SDS011;19946;49.306;11.350;2023-02-01T09:18:43;18.50;;;18.10;;
595;SDS011;19946;49.306;11.350;2023-02-01T09:21:43;15.70;;;15.40;;
595;SDS011;19946;49.306;11.350;2023-02-01T09:24:44;13.70;;;13.40;;
595;SDS011;19946;49.306;11.350;2023-02-01T09:27:44;15.20;;;14.90;;
595;SDS011;19946;49.306;11.350;2023-02-01T09:30:45;17.00;;;16.60;;
595;SDS011;19946;49.306;11.350;2023-02-01T09:33:45;17.60;;;17.20;;
595;SDS011;19946;49.306;11.350;2023-02-01T09:36:46;17.63;;;17.23;;
595;SDS011;19946;49.306;11.350;2023-02-01T09:39:46;18.00;;;17.60;;
595;SDS011;19946;49.306;11.350;2023-02-01T09:46:14;15.50;;;15.20;;
595;SDS011;19946;49.306;11.350;2023-02-01T09:49:26;10.70;;;10.50;;
595;SDS011;19946;49.306;11.350;2023-02-01T09:56:02;12.43;;;12.23;;
595;SDS011;19946;49.306;11.350;2023-02-01T09:59:23;15.70;;;15.40;;
595;SDS011;19946;49.306;11.350;2023-02-01T10:02:31;13.13;;;12.83;;
595;SDS011;19946;49.306;11.350;2023-02-01T10:16:00;7.70;;;7.60;;
595;SDS011;19946;49.306;11.350;2023-02-01T10:19:06;9.10;;;9.00;;
595;SDS011;19946;49.306;11.350;2023-02-01T10:25:55;17.33;;;16.93;;
595;SDS011;19946;49.306;11.350;2023-02-01T10:29:04;20.67;;;20.17;;
595;SDS011;19946;49.306;11.350;2023-02-01T10:32:15;17.40;;;17.00;;
595;SDS011;19946;49.306;11.350;2023-02-01T10:35:30;18.83;;;18.33;;
595;SDS011;19946;49.306;11.350;2023-02-01T10:38:33;18.63;;;18.23;;
595;SDS011;19946;49.306;11.350;2023-02-01T10:41:35;16.57;;;16.17;;
595;SDS011;19946;49.306;11.350;2023-02-01T10:44:40;15.73;;;15.43;;
595;SDS011;19946;49.306;11.350;2023-02-01T10:47:44;30.30;;;29.50;;
595;SDS011;19946;49.306;11.350;2023-02-01T10:50:56;12.60;;;12.40;;
595;SDS011;19946;49.306;11.350;2023-02-01T10:54:01;18.30;;;17.90;;
595;SDS011;19946;49.306;11.350;2023-02-01T10:57:09;13.17;;;12.87;;
595;SDS011;19946;49.306;11.350;2023-02-01T11:00:18;13.83;;;13.53;;
595;SDS011;19946;49.306;11.350;2023-02-01T11:03:30;20.20;;;19.70;;
595;SDS011;19946;49.306;11.350;2023-02-01T11:06:35;12.20;;;12.00;;
595;SDS011;19946;49.306;11.350;2023-02-01T11:09:40;13.17;;;12.90;;
595;SDS011;19946;49.306;11.350;2023-02-01T11:12:41;20.70;;;20.20;;
595;SDS011;19946;49.306;11.350;2023-02-01T11:15:45;22.17;;;21.63;;
595;SDS011;19946;49.306;11.350;2023-02-01T11:18:47;14.00;;;13.70;;
595;SDS011;19946;49.306;11.350;2023-02-01T11:21:54;9.33;;;9.23;;
595;SDS011;19946;49.306;11.350;2023-02-01T11:24:58;12.30;;;12.10;;
595;SDS011;19946;49.306;11.350;2023-02-01T11:28:01;7.10;;;7.00;;
595;SDS011;19946;49.306;11.350;2023-02-01T11:31:02;10.30;;;10.10;;
595;SDS011;19946;49.306;11.350;2023-02-01T11:34:08;10.73;;;10.53;;
595;SDS011;19946;49.306;11.350;2023-02-01T11:37:36;8.77;;;8.67;;
595;SDS011;19946;49.306;11.350;2023-02-01T11:40:38;11.50;;;11.30;;
595;SDS011;19946;49.306;11.350;2023-02-01T11:43:49;8.67;;;8.57;;
595;SDS011;19946;49.306;11.350;2023-02-01T11:46:51;8.97;;;8.87;;
595;SDS011;19946;49.306;11.350;2023-02-01T11:50:02;8.00;;;7.90;;
595;SDS011;19946;49.306;11.350;2023-02-01T11:53:27;10.30;;;10.10;;
595;SDS011;19946;49.306;11.350;2023-02-01T11:56:44;9.73;;;9.53;;
595;SDS011;19946;49.306;11.350;2023-02-01T11:59:52;10.60;;;10.40;;
595;SDS011;19946;49.306;11.350;2023-02-01T12:03:35;9.20;;;9.10;;
595;SDS011;19946;49.306;11.350;2023-02-01T12:06:55;11.40;;;11.20;;
595;SDS011;19946;49.306;11.350;2023-02-01T12:13:38;11.93;;;11.73;;
595;SDS011;19946;49.306;11.350;2023-02-01T12:17:18;12.10;;;11.90;;
595;SDS011;19946;49.306;11.350;2023-02-01T12:31:23;11.00;;;10.80;;
595;SDS011;19946;49.306;11.350;2023-02-01T12:34:38;11.80;;;11.60;;
595;SDS011;19946;49.306;11.350;2023-02-01T12:47:44;9.97;;;9.77;;
595;SDS011;19946;49.306;11.350;2023-02-01T12:50:52;10.57;;;10.37;;
595;SDS011;19946;49.306;11.350;2023-02-01T12:57:16;9.23;;;9.13;;
595;SDS011;19946;49.306;11.350;2023-02-01T13:00:27;10.33;;;10.13;;
595;SDS011;19946;49.306;11.350;2023-02-01T13:06:44;8.23;;;8.13;;
595;SDS011;19946;49.306;11.350;2023-02-01T13:09:49;9.77;;;9.57;;
595;SDS011;19946;49.306;11.350;2023-02-01T13:12:54;8.97;;;8.87;;
595;SDS011;19946;49.306;11.350;2023-02-01T13:16:19;7.43;;;7.33;;
595;SDS011;19946;49.306;11.350;2023-02-01T13:19:41;8.77;;;8.67;;
595;SDS011;19946;49.306;11.350;2023-02-01T13:22:51;8.60;;;8.50;;
595;SDS011;19946;49.306;11.350;2023-02-01T13:25:57;10.80;;;10.60;;
595;SDS011;19946;49.306;11.350;2023-02-01T13:28:59;11.50;;;11.30;;
595;SDS011;19946;49.306;11.350;2023-02-01T13:32:11;8.70;;;8.60;;
595;SDS011;19946;49.306;11.350;2023-02-01T13:39:10;8.60;;;8.50;;
595;SDS011;19946;49.306;11.350;2023-02-01T13:42:26;10.70;;;10.50;;
595;SDS011;19946;49.306;11.350;2023-02-01T13:45:41;9.93;;;9.73;;
595;SDS011;19946;49.306;11.350;2023-02-01T13:48:53;12.43;;;12.23;;
595;SDS011;19946;49.306;11.350;2023-02-01T13:51:57;14.10;;;13.80;;
595;SDS011;19946;49.306;11.350;2023-02-01T13:55:16;17.23;;;16.83;;
595;SDS011;19946;49.306;11.350;2023-02-01T13:58:36;16.90;;;16.50;;
595;SDS011;19946;49.306;11.350;2023-02-01T14:01:38;18.03;;;17.63;;
595;SDS011;19946;49.306;11.350;2023-02-01T14:04:45;16.50;;;16.10;;
595;SDS011;19946;49.306;11.350;2023-02-01T14:17:36;14.07;;;13.77;;
595;SDS011;19946;49.306;11.350;2023-02-01T14:20:44;13.00;;;12.70;;
595;SDS011;19946;49.306;11.350;2023-02-01T14:23:55;10.40;;;10.20;;
595;SDS011;19946;49.306;11.350;2023-02-01T14:30:11;8.70;;;8.60;;
595;SDS011;19946;49.306;11.350;2023-02-01T14:33:26;8.80;;;8.70;;
595;SDS011;19946;49.306;11.350;2023-02-01T14:36:38;9.27;;;9.17;;
595;SDS011;19946;49.306;11.350;2023-02-01T14:42:46;7.93;;;7.83;;
595;SDS011;19946;49.306;11.350;2023-02-01T14:45:48;8.50;;;8.40;;
595;SDS011;19946;49.306;11.350;2023-02-01T14:48:50;8.00;;;7.90;;
595;SDS011;19946;49.306;11.350;2023-02-01T14:51:51;7.93;;;7.83;;
595;SDS011;19946;49.306;11.350;2023-02-01T14:54:54;7.80;;;7.70;;
595;SDS011;19946;49.306;11.350;2023-02-01T14:57:57;8.40;;;8.30;;
595;SDS011;19946;49.306;11.350;2023-02-01T15:01:03;8.40;;;8.30;;
595;SDS011;19946;49.306;11.350;2023-02-01T15:04:06;7.80;;;7.70;;
595;SDS011;19946;49.306;11.350;2023-02-01T15:07:12;8.40;;;8.30;;
595;SDS011;19946;49.306;11.350;2023-02-01T15:10:14;10.00;;;9.80;;
595;SDS011;19946;49.306;11.350;2023-02-01T15:13:18;8.93;;;8.83;;
595;SDS011;19946;49.306;11.350;2023-02-01T15:16:24;9.30;;;9.20;;
595;SDS011;19946;49.306;11.350;2023-02-01T15:19:26;9.40;;;9.30;;
595;SDS011;19946;49.306;11.350;2023-02-01T15:22:29;9.10;;;9.00;;
595;SDS011;19946;49.306;11.350;2023-02-01T15:25:39;7.83;;;7.73;;
595;SDS011;19946;49.306;11.350;2023-02-01T15:28:40;8.57;;;8.47;;
595;SDS011;19946;49.306;11.350;2023-02-01T15:31:45;8.27;;;8.17;;
595;SDS011;19946;49.306;11.350;2023-02-01T15:34:48;8.53;;;8.43;;
595;SDS011;19946;49.306;11.350;2023-02-01T15:37:49;9.80;;;9.60;;
595;SDS011;19946;49.306;11.350;2023-02-01T15:47:05;8.00;;;7.90;;
595;SDS011;19946;49.306;11.350;2023-02-01T15:50:26;8.03;;;7.93;;
595;SDS011;19946;49.306;11.350;2023-02-01T15:53:28;8.00;;;7.90;;
595;SDS011;19946;49.306;11.350;2023-02-01T15:56:35;8.47;;;8.37;;
595;SDS011;19946;49.306;11.350;2023-02-01T15:59:41;7.70;;;7.60;;
595;SDS011;19946;49.306;11.350;2023-02-01T16:10:00;7.90;;;7.80;;
595;SDS011;19946;49.306;11.350;2023-02-01T16:13:06;8.00;;;7.90;;
595;SDS011;19946;49.306;11.350;2023-02-01T16:16:07;7.93;;;7.83;;
595;SDS011;19946;49.306;11.350;2023-02-01T16:19:13;6.90;;;6.80;;
595;SDS011;19946;49.306;11.350;2023-02-01T16:22:14;6.90;;;6.80;;
595;SDS011;19946;49.306;11.350;2023-02-01T16:25:14;8.20;;;8.10;;
595;SDS011;19946;49.306;11.350;2023-02-01T16:28:14;7.40;;;7.30;;
595;SDS011;19946;49.306;11.350;2023-02-01T16:31:15;7.00;;;6.90;;
595;SDS011;19946;49.306;11.350;2023-02-01T16:34:21;6.70;;;6.60;;
595;SDS011;19946;49.306;11.350;2023-02-01T16:37:22;7.83;;;7.73;;
595;SDS011;19946;49.306;11.350;2023-02-01T16:40:23;7.10;;;7.00;;
595;SDS011;19946;49.306;11.350;2023-02-01T16:43:24;7.30;;;7.20;;
595;SDS011;19946;49.306;11.350;2023-02-01T16:46:26;7.40;;;7.30;;
595;SDS011;19946;49.306;11.350;2023-02-01T16:49:32;7.63;;;7.53;;
595;SDS011;19946;49.306;11.350;2023-02-01T16:52:33;6.67;;;6.57;;
595;SDS011;19946;49.306;11.350;2023-02-01T16:55:35;6.90;;;6.80;;
595;SDS011;19946;49.306;11.350;2023-02-01T16:58:35;6.70;;;6.60;;
595;SDS011;19946;49.306;11.350;2023-02-01T17:01:36;7.40;;;7.30;;
595;SDS011;19946;49.306;11.350;2023-02-01T17:04:43;7.13;;;7.03;;
595;SDS011;19946;49.306;11.350;2023-02-01T17:07:43;5.73;;;5.73;;
595;SDS011;19946;49.306;11.350;2023-02-01T17:10:44;6.10;;;6.00;;
595;SDS011;19946;49.306;11.350;2023-02-01T17:13:45;6.30;;;6.20;;
595;SDS011;19946;49.306;11.350;2023-02-01T17:16:46;6.43;;;6.33;;
595;SDS011;19946;49.306;11.350;2023-02-01T17:19:50;6.90;;;6.80;;
595;SDS011;19946;49.306;11.350;2023-02-01T17:22:53;7.60;;;7.50;;
595;SDS011;19946;49.306;11.350;2023-02-01T17:25:53;6.70;;;6.60;;
595;SDS011;19946;49.306;11.350;2023-02-01T17:28:54;6.60;;;6.50;;
595;SDS011;19946;49.306;11.350;2023-02-01T17:31:55;6.47;;;6.37;;
595;SDS011;19946;49.306;11.350;2023-02-01T17:34:55;6.70;;;6.60;;
595;SDS011;19946;49.306;11.350;2023-02-01T17:37:57;7.60;;;7.50;;
595;SDS011;19946;49.306;11.350;2023-02-01T17:40:57;6.90;;;6.80;;
595;SDS011;19946;49.306;11.350;2023-02-01T17:43:58;6.80;;;6.70;;
595;SDS011;19946;49.306;11.350;2023-02-01T17:46:58;6.70;;;6.60;;
595;SDS011;19946;49.306;11.350;2023-02-01T17:49:58;7.50;;;7.40;;
595;SDS011;19946;49.306;11.350;2023-02-01T17:52:59;7.30;;;7.20;;
595;SDS011;19946;49.306;11.350;2023-02-01T17:55:59;7.00;;;6.90;;
595;SDS011;19946;49.306;11.350;2023-02-01T17:59:00;6.97;;;6.87;;
595;SDS011;19946;49.306;11.350;2023-02-01T18:02:00;6.60;;;6.50;;
595;SDS011;19946;49.306;11.350;2023-02-01T18:05:01;7.77;;;7.67;;
595;SDS011;19946;49.306;11.350;2023-02-01T18:08:01;6.70;;;6.60;;
595;SDS011;19946;49.306;11.350;2023-02-01T18:11:02;6.70;;;6.60;;
595;SDS011;19946;49.306;11.350;2023-02-01T18:14:02;8.43;;;8.33;;
595;SDS011;19946;49.306;11.350;2023-02-01T18:17:02;7.40;;;7.30;;
595;SDS011;19946;49.306;11.350;2023-02-01T18:20:03;7.90;;;7.80;;
595;SDS011;19946;49.306;11.350;2023-02-01T18:23:04;7.60;;;7.50;;
595;SDS011;19946;49.306;11.350;2023-02-01T18:26:04;8.50;;;8.40;;
595;SDS011;19946;49.306;11.350;2023-02-01T18:29:04;7.60;;;7.50;;
595;SDS011;19946;49.306;11.350;2023-02-01T18:32:05;7.90;;;7.80;;
595;SDS011;19946;49.306;11.350;2023-02-01T18:35:15;7.30;;;7.20;;
595;SDS011;19946;49.306;11.350;2023-02-01T18:38:19;7.50;;;7.40;;
595;SDS011;19946;49.306;11.350;2023-02-01T18:41:19;6.80;;;6.70;;
595;SDS011;19946;49.306;11.350;2023-02-01T18:44:20;7.47;;;7.37;;
595;SDS011;19946;49.306;11.350;2023-02-01T18:47:23;7.73;;;7.63;;
595;SDS011;19946;49.306;11.350;2023-02-01T18:50:23;7.70;;;7.60;;
595;SDS011;19946;49.306;11.350;2023-02-01T18:53:23;7.50;;;7.40;;
595;SDS011;19946;49.306;11.350;2023-02-01T18:56:26;8.20;;;8.10;;
595;SDS011;19946;49.306;11.350;2023-02-01T18:59:26;7.70;;;7.60;;
595;SDS011;19946;49.306;11.350;2023-02-01T19:02:27;7.10;;;7.00;;
595;SDS011;19946;49.306;11.350;2023-02-01T19:05:27;7.37;;;7.27;;
595;SDS011;19946;49.306;11.350;2023-02-01T19:08:29;7.83;;;7.73;;
595;SDS011;19946;49.306;11.350;2023-02-01T19:11:30;7.60;;;7.50;;
595;SDS011;19946;49.306;11.350;2023-02-01T19:14:30;7.70;;;7.60;;
595;SDS011;19946;49.306;11.350;2023-02-01T19:17:30;7.70;;;7.60;;
595;SDS011;19946;49.306;11.350;2023-02-01T19:20:31;7.30;;;7.20;;
595;SDS011;19946;49.306;11.350;2023-02-01T19:23:32;7.67;;;7.57;;
595;SDS011;19946;49.306;11.350;2023-02-01T19:26:32;7.40;;;7.30;;
595;SDS011;19946;49.306;11.350;2023-02-01T19:29:32;7.30;;;7.20;;
595;SDS011;19946;49.306;11.350;2023-02-01T19:32:33;7.40;;;7.30;;
595;SDS011;19946;49.306;11.350;2023-02-01T19:35:33;7.10;;;7.00;;
595;SDS011;19946;49.306;11.350;2023-02-01T19:38:34;6.97;;;6.87;;
595;SDS011;19946;49.306;11.350;2023-02-01T19:41:35;7.40;;;7.30;;
595;SDS011;19946;49.306;11.350;2023-02-01T19:44:35;7.20;;;7.10;;
595;SDS011;19946;49.306;11.350;2023-02-01T19:47:35;7.40;;;7.30;;
595;SDS011;19946;49.306;11.350;2023-02-01T19:50:36;7.67;;;7.57;;
595;SDS011;19946;49.306;11.350;2023-02-01T19:53:36;6.90;;;6.80;;
595;SDS011;19946;49.306;11.350;2023-02-01T19:56:36;7.47;;;7.37;;
595;SDS011;19946;49.306;11.350;2023-02-01T19:59:37;6.83;;;6.73;;
595;SDS011;19946;49.306;11.350;2023-02-01T20:02:37;7.60;;;7.50;;
595;SDS011;19946;49.306;11.350;2023-02-01T20:05:37;7.40;;;7.30;;
595;SDS011;19946;49.306;11.350;2023-02-01T20:08:38;7.03;;;6.93;;
595;SDS011;19946;49.306;11.350;2023-02-01T20:11:38;7.30;;;7.20;;
595;SDS011;19946;49.306;11.350;2023-02-01T20:14:39;7.70;;;7.60;;
595;SDS011;19946;49.306;11.350;2023-02-01T20:17:39;6.23;;;6.13;;
595;SDS011;19946;49.306;11.350;2023-02-01T20:20:40;7.13;;;7.03;;
595;SDS011;19946;49.306;11.350;2023-02-01T20:23:44;5.93;;;5.83;;
595;SDS011;19946;49.306;11.350;2023-02-01T20:26:47;5.73;;;5.73;;